Time;durP1;ratioP1;P1;durP2;ratioP2;P2;SDS_P1;SDS_P2;PMS_P1;PMS_P2;Temp;Humidity;BMP_temperature;BMP_pressure;BME280_temperature;BME280_humidity;BME280_pressure;Samples;Min_cycle;Max_cycle;Signal;HPM_P1;HPM_P2
2023/07/12 00:01:51;;;;;;;2.72;2.15;;;;;;;;;;5099632;27;42357;-63
2023/07/12 00:04:19;;;;;;;3.38;2.70;;;;;;;;;;5097011;27;41820;-63
2023/07/12 00:06:48;;;;;;;2.78;2.05;;;;;;;;;;5087285;28;40866;-63
2023/07/12 00:09:17;;;;;;;3.97;2.45;;;;;;;;;;5087393;28;41644;-63
2023/07/12 00:11:45;;;;;;;2.80;2.03;;;;;;;;;;5087843;28;42137;-63
2023/07/12 00:14:13;;;;;;;2.67;2.20;;;;;;;;;;5087117;28;40121;-63
2023/07/12 00:16:41;;;;;;;3.63;2.58;;;;;;;;;;5094427;28;41887;-63
2023/07/12 00:19:10;;;;;;;4.28;2.05;;;;;;;;;;5107675;27;41702;-63
2023/07/12 00:21:39;;;;;;;4.03;2.17;;;;;;;;;;5106678;27;41369;-63
2023/07/12 00:24:08;;;;;;;2.75;1.92;;;;;;;;;;5107760;27;42397;-63
2023/07/12 00:26:37;;;;;;;2.38;2.05;;;;;;;;;;5106996;27;42296;-63
2023/07/12 00:29:06;;;;;;;4.20;2.30;;;;;;;;;;5105543;28;40093;-63
2023/07/12 00:31:37;;;;;;;2.67;2.08;;;;;;;;;;5105542;28;40840;-63
2023/07/12 00:34:04;;;;;;;2.78;2.22;;;;;;;;;;5107401;28;40749;-63
2023/07/12 00:36:34;;;;;;;3.13;2.15;;;;;;;;;;5107507;28;41781;-63
2023/07/12 00:39:03;;;;;;;2.78;2.05;;;;;;;;;;5107318;27;43146;-63
2023/07/12 00:41:41;;;;;;;2.70;1.90;;;;;;;;;;5106461;28;40615;-63
2023/07/12 00:44:12;;;;;;;3.25;2.20;;;;;;;;;;5106573;28;40331;-63
2023/07/12 00:46:41;;;;;;;3.05;2.00;;;;;;;;;;5105293;28;40091;-63
2023/07/12 00:49:09;;;;;;;4.75;2.40;;;;;;;;;;5106792;28;40958;-63
2023/07/12 00:51:38;;;;;;;2.58;1.90;;;;;;;;;;5107208;28;42560;-63
2023/07/12 00:54:10;;;;;;;2.90;2.30;;;;;;;;;;5107538;28;40416;-63
2023/07/12 00:56:39;;;;;;;3.00;1.83;;;;;;;;;;5104944;28;40427;-63
2023/07/12 00:59:08;;;;;;;2.65;2.00;;;;;;;;;;5106063;28;40832;-63
2023/07/12 01:01:37;;;;;;;3.80;2.15;;;;;;;;;;5105985;28;41531;-63
2023/07/12 01:04:05;;;;;;;2.92;2.10;;;;;;;;;;5105452;28;40506;-63
2023/07/12 01:06:33;;;;;;;2.70;2.17;;;;;;;;;;5109005;27;42032;-63
2023/07/12 01:09:03;;;;;;;3.05;1.92;;;;;;;;;;5114120;28;42015;-63
2023/07/12 01:11:31;;;;;;;3.65;2.10;;;;;;;;;;5113773;28;42031;-64
2023/07/12 01:13:59;;;;;;;3.47;1.83;;;;;;;;;;5108167;28;39276;-63
2023/07/12 01:16:27;;;;;;;2.78;2.08;;;;;;;;;;5103279;28;41170;-64
2023/07/12 01:18:56;;;;;;;3.22;2.00;;;;;;;;;;5113202;27;41929;-63
2023/07/12 01:21:27;;;;;;;2.90;1.75;;;;;;;;;;5112921;28;40430;-63
2023/07/12 01:23:56;;;;;;;3.15;1.67;;;;;;;;;;5112105;28;41211;-63
2023/07/12 01:26:25;;;;;;;2.75;2.28;;;;;;;;;;5113606;28;42218;-63
2023/07/12 01:28:53;;;;;;;2.35;2.03;;;;;;;;;;5113569;28;39953;-63
2023/07/12 01:31:21;;;;;;;2.63;1.85;;;;;;;;;;5112976;28;41286;-63
2023/07/12 01:33:50;;;;;;;2.38;1.90;;;;;;;;;;5113952;28;40354;-63
2023/07/12 01:36:17;;;;;;;3.33;1.65;;;;;;;;;;5111492;28;40796;-63
2023/07/12 01:38:48;;;;;;;2.75;1.95;;;;;;;;;;5113005;27;42191;-63
2023/07/12 01:41:16;;;;;;;3.03;1.95;;;;;;;;;;5113682;28;41381;-63
2023/07/12 01:43:44;;;;;;;2.90;1.70;;;;;;;;;;5113230;27;42060;-63
2023/07/12 01:46:12;;;;;;;3.35;2.10;;;;;;;;;;5113701;28;42266;-63
2023/07/12 01:48:40;;;;;;;3.13;1.95;;;;;;;;;;5111745;28;38904;-63
2023/07/12 01:51:08;;;;;;;2.80;1.73;;;;;;;;;;5111746;28;40106;-63
2023/07/12 01:53:36;;;;;;;3.35;2.13;;;;;;;;;;5113613;28;43134;-63
2023/07/12 01:56:06;;;;;;;3.33;1.90;;;;;;;;;;5113792;28;42235;-63
2023/07/12 01:58:35;;;;;;;5.18;1.77;;;;;;;;;;5110086;28;41406;-63
2023/07/12 02:01:03;;;;;;;2.17;1.65;;;;;;;;;;5111564;28;38943;-63
2023/07/12 02:03:34;;;;;;;2.13;1.42;;;;;;;;;;5112439;27;42582;-63
2023/07/12 02:06:02;;;;;;;3.00;1.60;;;;;;;;;;5113037;28;41825;-63
2023/07/12 02:08:30;;;;;;;4.68;1.98;;;;;;;;;;5113238;28;40412;-63
2023/07/12 02:10:58;;;;;;;3.67;1.65;;;;;;;;;;5128537;27;40194;-63
2023/07/12 02:13:27;;;;;;;2.55;1.70;;;;;;;;;;5127822;27;40582;-63
2023/07/12 02:15:55;;;;;;;2.88;1.50;;;;;;;;;;5129006;27;39168;-63
2023/07/12 02:18:23;;;;;;;2.85;1.95;;;;;;;;;;5110607;27;43064;-63
2023/07/12 02:20:51;;;;;;;2.35;1.85;;;;;;;;;;5107764;28;39889;-63
2023/07/12 02:23:20;;;;;;;2.30;1.67;;;;;;;;;;5109139;27;41374;-63
2023/07/12 02:25:48;;;;;;;2.35;1.42;;;;;;;;;;5109542;27;42169;-63
2023/07/12 02:28:16;;;;;;;3.67;1.92;;;;;;;;;;5108863;28;41354;-63
2023/07/12 02:30:45;;;;;;;2.63;1.80;;;;;;;;;;5109266;28;41795;-63
2023/07/12 02:33:13;;;;;;;3.05;1.90;;;;;;;;;;5107069;28;42087;-63
2023/07/12 02:35:41;;;;;;;2.42;1.80;;;;;;;;;;5109817;27;40129;-63
2023/07/12 02:38:09;;;;;;;2.45;1.42;;;;;;;;;;5109854;27;41720;-63
2023/07/12 02:40:37;;;;;;;3.45;1.85;;;;;;;;;;5108050;27;40616;-62
2023/07/12 02:43:05;;;;;;;2.17;1.70;;;;;;;;;;5109065;27;41326;-63
2023/07/12 02:45:33;;;;;;;1.83;1.60;;;;;;;;;;5108468;27;42642;-63
2023/07/12 02:48:03;;;;;;;2.70;1.55;;;;;;;;;;5108677;27;40514;-63
2023/07/12 02:50:31;;;;;;;2.70;1.55;;;;;;;;;;5108759;27;42245;-63
2023/07/12 02:53:14;;;;;;;3.50;1.48;;;;;;;;;;5108958;27;41922;-63
2023/07/12 02:55:42;;;;;;;3.33;1.90;;;;;;;;;;5108328;27;41080;-63
2023/07/12 02:58:10;;;;;;;2.85;1.60;;;;;;;;;;5109445;27;41610;-63
2023/07/12 03:00:38;;;;;;;2.97;1.52;;;;;;;;;;5108957;27;33213;-63
2023/07/12 03:03:08;;;;;;;3.50;1.83;;;;;;;;;;5108015;27;41586;-63
2023/07/12 03:05:37;;;;;;;3.22;1.58;;;;;;;;;;5108550;27;43221;-63
2023/07/12 03:08:05;;;;;;;3.00;1.85;;;;;;;;;;5109313;27;40460;-63
2023/07/12 03:10:33;;;;;;;2.38;1.52;;;;;;;;;;5108180;27;41665;-63
2023/07/12 03:13:01;;;;;;;3.47;1.92;;;;;;;;;;5108868;27;41964;-63
2023/07/12 03:15:29;;;;;;;3.45;1.65;;;;;;;;;;5107690;27;40108;-63
2023/07/12 03:17:57;;;;;;;2.35;1.35;;;;;;;;;;5108825;27;41634;-63
2023/07/12 03:20:26;;;;;;;3.58;1.73;;;;;;;;;;5108473;27;42956;-63
2023/07/12 03:22:54;;;;;;;2.08;1.58;;;;;;;;;;5108231;27;41150;-62
2023/07/12 03:25:22;;;;;;;2.05;1.60;;;;;;;;;;5103604;27;43217;-63
2023/07/12 03:27:50;;;;;;;2.35;1.73;;;;;;;;;;5097812;28;41269;-63
2023/07/12 03:30:18;;;;;;;4.53;1.70;;;;;;;;;;5084641;28;41444;-63
2023/07/12 03:32:46;;;;;;;2.75;1.83;;;;;;;;;;5087885;28;42071;-63
2023/07/12 03:35:14;;;;;;;2.50;1.90;;;;;;;;;;5088912;28;40040;-63
2023/07/12 03:37:44;;;;;;;2.28;1.50;;;;;;;;;;5087939;28;41620;-63
2023/07/12 03:40:12;;;;;;;3.85;1.65;;;;;;;;;;5088203;28;42091;-63
2023/07/12 03:42:40;;;;;;;2.15;1.23;;;;;;;;;;5087716;28;41106;-63
2023/07/12 03:45:08;;;;;;;5.88;2.08;;;;;;;;;;5087951;28;42022;-63
2023/07/12 03:47:36;;;;;;;2.78;1.50;;;;;;;;;;5107759;27;40633;-63
2023/07/12 03:50:04;;;;;;;3.58;2.08;;;;;;;;;;5108751;27;42597;-63
2023/07/12 03:52:32;;;;;;;2.10;1.42;;;;;;;;;;5106681;27;41865;-63
2023/07/12 03:55:02;;;;;;;3.58;1.70;;;;;;;;;;5108618;27;39959;-63
2023/07/12 03:57:30;;;;;;;3.47;1.80;;;;;;;;;;5106975;27;41771;-63
2023/07/12 03:59:58;;;;;;;2.75;1.33;;;;;;;;;;5108279;27;43063;-63
2023/07/12 04:02:26;;;;;;;2.00;1.52;;;;;;;;;;5107341;27;41964;-63
2023/07/12 04:04:56;;;;;;;3.15;1.50;;;;;;;;;;5108060;27;40684;-63
2023/07/12 04:07:24;;;;;;;2.95;1.50;;;;;;;;;;5107342;27;40970;-63
2023/07/12 04:09:52;;;;;;;2.97;1.55;;;;;;;;;;5108054;27;42137;-63
2023/07/12 04:12:22;;;;;;;2.05;1.30;;;;;;;;;;5106845;27;42068;-63
2023/07/12 04:14:49;;;;;;;2.53;1.17;;;;;;;;;;5108185;27;42003;-63
2023/07/12 04:17:17;;;;;;;2.72;1.60;;;;;;;;;;5107168;27;42062;-63
2023/07/12 04:19:45;;;;;;;2.55;1.40;;;;;;;;;;5107239;27;42097;-63
2023/07/12 04:22:13;;;;;;;2.05;1.60;;;;;;;;;;5107801;27;40479;-63
2023/07/12 04:24:41;;;;;;;3.63;1.77;;;;;;;;;;5107489;27;41431;-63
2023/07/12 04:27:09;;;;;;;2.00;1.30;;;;;;;;;;5107721;27;42197;-63
2023/07/12 04:29:39;;;;;;;1.70;1.30;;;;;;;;;;5095874;27;41165;-63
2023/07/12 04:32:07;;;;;;;4.32;1.60;;;;;;;;;;5107796;27;42002;-63
2023/07/12 04:34:35;;;;;;;2.33;1.60;;;;;;;;;;5089127;27;41468;-63
2023/07/12 04:37:06;;;;;;;3.50;1.45;;;;;;;;;;5087410;28;42569;-63
2023/07/12 04:39:35;;;;;;;2.30;1.60;;;;;;;;;;5086646;28;41840;-63
2023/07/12 04:42:03;;;;;;;2.75;1.42;;;;;;;;;;5095928;28;41684;-63
2023/07/12 04:44:31;;;;;;;2.70;1.55;;;;;;;;;;5107236;27;42230;-63
2023/07/12 04:47:00;;;;;;;2.45;1.63;;;;;;;;;;5106612;27;42432;-63
2023/07/12 04:49:28;;;;;;;3.05;1.70;;;;;;;;;;5098357;27;39775;-63
2023/07/12 04:51:57;;;;;;;2.05;1.55;;;;;;;;;;5090005;28;42233;-63
2023/07/12 04:54:25;;;;;;;3.75;1.50;;;;;;;;;;5098604;28;41025;-63
2023/07/12 04:56:53;;;;;;;3.42;1.30;;;;;;;;;;5100783;28;41733;-63
2023/07/12 04:59:21;;;;;;;3.33;1.38;;;;;;;;;;5097982;27;41282;-63
2023/07/12 05:01:48;;;;;;;2.53;1.73;;;;;;;;;;5098507;27;40771;-63
2023/07/12 05:04:18;;;;;;;2.80;1.67;;;;;;;;;;5102830;28;40176;-63
2023/07/12 05:06:46;;;;;;;2.80;1.65;;;;;;;;;;5096166;28;42212;-63
2023/07/12 05:09:14;;;;;;;2.70;1.42;;;;;;;;;;5104093;27;40793;-63
2023/07/12 05:11:42;;;;;;;2.38;1.80;;;;;;;;;;5104732;28;43781;-63
2023/07/12 05:14:10;;;;;;;2.15;1.70;;;;;;;;;;5107434;27;40601;-63
2023/07/12 05:16:38;;;;;;;3.47;1.70;;;;;;;;;;5105798;27;41035;-63
2023/07/12 05:19:06;;;;;;;2.72;1.83;;;;;;;;;;5105096;27;41965;-63
2023/07/12 05:21:36;;;;;;;6.53;3.50;;;;;;;;;;5102137;28;40904;-62
2023/07/12 05:24:04;;;;;;;8.45;4.53;;;;;;;;;;5106332;27;41312;-62
2023/07/12 05:26:32;;;;;;;6.78;3.95;;;;;;;;;;5106823;27;42343;-63
2023/07/12 05:29:00;;;;;;;7.97;4.65;;;;;;;;;;5106183;27;40026;-62
2023/07/12 05:31:28;;;;;;;11.23;5.90;;;;;;;;;;5105675;27;41700;-63
2023/07/12 05:33:56;;;;;;;7.50;4.95;;;;;;;;;;5107245;27;40642;-62
2023/07/12 05:36:24;;;;;;;11.65;6.38;;;;;;;;;;5105764;27;41854;-62
2023/07/12 05:38:54;;;;;;;6.88;5.47;;;;;;;;;;5106973;27;42223;-62
2023/07/12 05:41:22;;;;;;;12.30;6.93;;;;;;;;;;5105794;27;41509;-62
2023/07/12 05:43:50;;;;;;;10.35;6.65;;;;;;;;;;5106164;27;41598;-62
2023/07/12 05:46:18;;;;;;;9.27;6.63;;;;;;;;;;5105744;27;42100;-62
2023/07/12 05:48:46;;;;;;;10.43;5.75;;;;;;;;;;5107013;27;41458;-62
2023/07/12 05:51:14;;;;;;;10.93;6.57;;;;;;;;;;5105834;27;42529;-63
2023/07/12 05:53:42;;;;;;;9.90;6.63;;;;;;;;;;5108746;27;42064;-63
2023/07/12 05:56:11;;;;;;;11.43;7.05;;;;;;;;;;5110521;27;42631;-63
2023/07/12 05:58:39;;;;;;;12.63;7.45;;;;;;;;;;5109236;27;42354;-63
2023/07/12 06:01:07;;;;;;;10.88;6.75;;;;;;;;;;5110093;27;40232;-63
2023/07/12 06:03:36;;;;;;;10.07;7.25;;;;;;;;;;5101386;27;41561;-63
2023/07/12 06:06:05;;;;;;;12.32;6.40;;;;;;;;;;5090832;27;41624;-63
2023/07/12 06:08:33;;;;;;;10.13;6.80;;;;;;;;;;5088998;28;40108;-66
2023/07/12 06:11:01;;;;;;;10.73;6.97;;;;;;;;;;5106011;28;42328;-65
2023/07/12 06:13:30;;;;;;;12.98;7.40;;;;;;;;;;5109489;28;43770;-65
2023/07/12 06:15:58;;;;;;;12.02;7.20;;;;;;;;;;5110279;27;40978;-67
2023/07/12 06:18:26;;;;;;;12.50;7.40;;;;;;;;;;5108716;27;43161;-65
2023/07/12 06:20:55;;;;;;;12.40;7.25;;;;;;;;;;5109748;27;41449;-64
2023/07/12 06:23:23;;;;;;;13.18;7.63;;;;;;;;;;5109255;28;41509;-65
2023/07/12 06:25:51;;;;;;;10.32;7.25;;;;;;;;;;5100504;27;42372;-65
2023/07/12 06:28:19;;;;;;;9.38;6.93;;;;;;;;;;5097056;28;41131;-65
2023/07/12 06:30:48;;;;;;;13.18;7.68;;;;;;;;;;5101128;27;42099;-65
2023/07/12 06:33:17;;;;;;;12.63;7.95;;;;;;;;;;5102819;27;42525;-65
2023/07/12 06:35:45;;;;;;;10.00;6.45;;;;;;;;;;5100630;27;41355;-65
2023/07/12 06:38:13;;;;;;;15.60;6.78;;;;;;;;;;5098317;27;42548;-65
2023/07/12 06:40:42;;;;;;;11.30;6.53;;;;;;;;;;5101306;27;40303;-64
2023/07/12 06:43:11;;;;;;;11.55;6.50;;;;;;;;;;5100828;27;41605;-65
2023/07/12 06:45:44;;;;;;;11.98;6.28;;;;;;;;;;5096622;28;41732;-65
2023/07/12 06:48:14;;;;;;;9.75;5.85;;;;;;;;;;5097303;27;40574;-65
2023/07/12 06:50:42;;;;;;;13.98;5.72;;;;;;;;;;5097922;28;41636;-65
2023/07/12 06:53:10;;;;;;;13.13;6.20;;;;;;;;;;5097259;27;42193;-65
2023/07/12 06:55:42;;;;;;;13.27;5.43;;;;;;;;;;5103358;27;40549;-65
2023/07/12 06:58:10;;;;;;;11.10;5.22;;;;;;;;;;5100738;28;41870;-65
2023/07/12 07:00:39;;;;;;;11.32;4.65;;;;;;;;;;5105259;28;41898;-65
2023/07/12 07:03:09;;;;;;;11.32;4.32;;;;;;;;;;5109204;27;41614;-65
2023/07/12 07:05:39;;;;;;;10.35;4.32;;;;;;;;;;5108157;27;41489;-63
2023/07/12 07:08:07;;;;;;;11.93;4.65;;;;;;;;;;5108792;27;41169;-63
2023/07/12 07:10:35;;;;;;;10.02;4.82;;;;;;;;;;5107857;27;41571;-63
2023/07/12 07:13:03;;;;;;;7.88;4.40;;;;;;;;;;5109202;27;41782;-63
2023/07/12 07:15:31;;;;;;;8.85;4.65;;;;;;;;;;5108100;27;40130;-63
2023/07/12 07:17:59;;;;;;;12.13;5.18;;;;;;;;;;5109144;27;42182;-63
2023/07/12 07:20:27;;;;;;;11.85;4.85;;;;;;;;;;5109026;27;43278;-63
2023/07/12 07:22:56;;;;;;;9.30;4.85;;;;;;;;;;5108124;27;41768;-63
2023/07/12 07:25:25;;;;;;;11.45;4.85;;;;;;;;;;5107686;27;43180;-63
2023/07/12 07:27:53;;;;;;;13.18;4.47;;;;;;;;;;5108773;27;41583;-63
2023/07/12 07:30:21;;;;;;;8.35;3.70;;;;;;;;;;5106660;27;42207;-63
2023/07/12 07:32:49;;;;;;;9.13;3.88;;;;;;;;;;5108830;27;42181;-63
2023/07/12 07:35:17;;;;;;;10.25;4.90;;;;;;;;;;5108607;27;39965;-63
2023/07/12 07:37:46;;;;;;;11.40;4.53;;;;;;;;;;5108602;27;42150;-65
2023/07/12 07:40:16;;;;;;;10.45;3.90;;;;;;;;;;5099535;27;42373;-63
2023/07/12 07:42:44;;;;;;;10.63;4.10;;;;;;;;;;5101288;28;40305;-63
2023/07/12 07:45:12;;;;;;;15.70;5.38;;;;;;;;;;5098306;28;42389;-64
2023/07/12 07:47:40;;;;;;;9.90;4.22;;;;;;;;;;5092690;27;39905;-63
2023/07/12 07:50:08;;;;;;;11.88;5.03;;;;;;;;;;5087436;28;41537;-63
2023/07/12 07:52:37;;;;;;;9.60;4.30;;;;;;;;;;5096661;28;42222;-62
2023/07/12 07:55:05;;;;;;;15.45;5.18;;;;;;;;;;5102340;28;40739;-62
2023/07/12 07:57:35;;;;;;;10.82;5.00;;;;;;;;;;5101220;28;41266;-60
2023/07/12 08:00:07;;;;;;;9.15;4.32;;;;;;;;;;5091518;27;42745;-59
2023/07/12 08:02:39;;;;;;;10.85;4.70;;;;;;;;;;5106338;28;40626;-61
2023/07/12 08:05:07;;;;;;;8.82;4.72;;;;;;;;;;5107668;28;41726;-62
2023/07/12 08:07:39;;;;;;;12.27;5.15;;;;;;;;;;5107152;27;40428;-62
2023/07/12 08:10:08;;;;;;;12.90;4.85;;;;;;;;;;5107814;27;41850;-64
2023/07/12 08:12:37;;;;;;;9.70;4.72;;;;;;;;;;5106254;27;42707;-63
2023/07/12 08:15:06;;;;;;;8.45;4.88;;;;;;;;;;5107763;27;40576;-64
2023/07/12 08:17:34;;;;;;;8.40;4.35;;;;;;;;;;5086059;27;42451;-63
2023/07/12 08:20:02;;;;;;;11.75;4.68;;;;;;;;;;5086996;28;42775;-63
2023/07/12 08:22:30;;;;;;;9.27;4.55;;;;;;;;;;5103458;28;40960;-63
2023/07/12 08:24:58;;;;;;;8.68;4.55;;;;;;;;;;5107145;27;42656;-62
2023/07/12 08:27:26;;;;;;;8.25;4.13;;;;;;;;;;5107465;27;42066;-63
2023/07/12 08:29:58;;;;;;;12.15;4.43;;;;;;;;;;5086983;27;42776;-64
2023/07/12 08:32:27;;;;;;;9.63;4.60;;;;;;;;;;5099545;28;42211;-65
2023/07/12 08:34:56;;;;;;;11.35;5.07;;;;;;;;;;5106701;27;40617;-63
2023/07/12 08:37:24;;;;;;;10.85;4.18;;;;;;;;;;5106438;28;41623;-63
2023/07/12 08:39:52;;;;;;;5.93;3.75;;;;;;;;;;5098302;28;42474;-63
2023/07/12 08:42:20;;;;;;;8.70;3.95;;;;;;;;;;5098998;28;42243;-63
2023/07/12 08:44:48;;;;;;;18.25;4.00;;;;;;;;;;5105857;27;41680;-62
2023/07/12 08:47:19;;;;;;;6.28;3.58;;;;;;;;;;5106104;27;43070;-63
2023/07/12 08:49:47;;;;;;;8.35;3.92;;;;;;;;;;5107130;27;41070;-62
2023/07/12 08:52:16;;;;;;;8.13;3.90;;;;;;;;;;5106851;27;42698;-62
2023/07/12 08:54:44;;;;;;;11.50;4.45;;;;;;;;;;5106030;27;41314;-64
2023/07/12 08:57:16;;;;;;;8.45;4.22;;;;;;;;;;5106712;27;41165;-64
2023/07/12 08:59:44;;;;;;;11.13;3.88;;;;;;;;;;5106342;27;42031;-63
2023/07/12 09:02:17;;;;;;;10.55;4.00;;;;;;;;;;5106718;27;39961;-64
2023/07/12 09:04:46;;;;;;;13.13;4.82;;;;;;;;;;5106550;27;41853;-63
2023/07/12 09:07:14;;;;;;;8.43;3.50;;;;;;;;;;5106571;27;42684;-62
2023/07/12 09:09:43;;;;;;;9.30;3.72;;;;;;;;;;5105390;27;40888;-63
2023/07/12 09:12:21;;;;;;;10.88;3.90;;;;;;;;;;5106582;27;42803;-63
2023/07/12 09:14:50;;;;;;;6.97;3.58;;;;;;;;;;5086953;27;40255;-62
2023/07/12 09:17:22;;;;;;;9.32;3.85;;;;;;;;;;5086325;27;41608;-62
2023/07/12 09:19:52;;;;;;;10.70;3.97;;;;;;;;;;5085728;28;41477;-63
2023/07/12 09:22:20;;;;;;;13.85;4.35;;;;;;;;;;5097563;28;40780;-61
2023/07/12 09:24:51;;;;;;;11.05;4.20;;;;;;;;;;5096051;27;41713;-63
2023/07/12 09:27:19;;;;;;;10.02;3.80;;;;;;;;;;5087181;28;41727;-63
2023/07/12 09:29:47;;;;;;;9.25;3.63;;;;;;;;;;5087911;28;39970;-64
2023/07/12 09:32:16;;;;;;;9.88;4.13;;;;;;;;;;5102202;28;41498;-64
2023/07/12 09:34:44;;;;;;;12.52;4.00;;;;;;;;;;5109532;27;40414;-63
2023/07/12 09:37:14;;;;;;;9.60;4.28;;;;;;;;;;5109692;27;41866;-63
2023/07/12 09:39:42;;;;;;;5.72;3.67;;;;;;;;;;5109180;27;42388;-60
2023/07/12 09:42:11;;;;;;;8.40;4.47;;;;;;;;;;5108763;27;40651;-69
2023/07/12 09:44:39;;;;;;;16.25;4.97;;;;;;;;;;5108655;27;42695;-70
2023/07/12 09:47:08;;;;;;;8.15;4.38;;;;;;;;;;5109928;27;42737;-72
2023/07/12 09:49:38;;;;;;;10.52;4.18;;;;;;;;;;5108199;27;40449;-70
2023/07/12 09:52:09;;;;;;;11.25;4.50;;;;;;;;;;5108680;27;41088;-63
2023/07/12 09:54:41;;;;;;;10.02;3.78;;;;;;;;;;5108966;27;42205;-62
2023/07/12 09:57:10;;;;;;;10.75;3.90;;;;;;;;;;5108987;27;41712;-62
2023/07/12 09:59:41;;;;;;;11.25;3.55;;;;;;;;;;5108604;27;42131;-62
2023/07/12 10:02:15;;;;;;;9.80;3.55;;;;;;;;;;5108880;27;40266;-61
2023/07/12 10:04:45;;;;;;;11.25;4.13;;;;;;;;;;5108826;27;41739;-62
2023/07/12 10:07:16;;;;;;;7.32;3.47;;;;;;;;;;5109502;27;41990;-62
2023/07/12 10:09:46;;;;;;;8.07;3.75;;;;;;;;;;5109457;27;39808;-62
2023/07/12 10:12:18;;;;;;;10.07;3.70;;;;;;;;;;5107699;27;41875;-63
2023/07/12 10:14:46;;;;;;;9.70;3.65;;;;;;;;;;5109589;27;41727;-63
2023/07/12 10:17:16;;;;;;;9.18;3.25;;;;;;;;;;5108876;27;41232;-62
2023/07/12 10:19:44;;;;;;;11.95;3.65;;;;;;;;;;5108660;27;43252;-62
2023/07/12 10:22:13;;;;;;;12.40;3.60;;;;;;;;;;5102624;27;40976;-65
2023/07/12 10:24:43;;;;;;;9.75;3.63;;;;;;;;;;5097554;27;41552;-63
2023/07/12 10:27:14;;;;;;;9.93;3.45;;;;;;;;;;5098545;28;42997;-62
2023/07/12 10:29:43;;;;;;;8.13;3.47;;;;;;;;;;5088737;28;40934;-64
2023/07/12 10:32:16;;;;;;;7.95;2.95;;;;;;;;;;5092326;28;41620;-62
2023/07/12 10:34:45;;;;;;;10.65;3.53;;;;;;;;;;5103090;28;42125;-62
2023/07/12 10:37:19;;;;;;;9.93;3.67;;;;;;;;;;5095808;28;39926;-63
2023/07/12 10:39:47;;;;;;;7.10;3.00;;;;;;;;;;5107517;27;41214;-63
2023/07/12 10:42:20;;;;;;;10.80;3.40;;;;;;;;;;5106937;27;39999;-63
2023/07/12 10:44:50;;;;;;;5.55;3.22;;;;;;;;;;5109108;27;41551;-62
2023/07/12 10:47:18;;;;;;;10.80;3.53;;;;;;;;;;5107482;27;41899;-62
2023/07/12 10:49:47;;;;;;;7.85;3.10;;;;;;;;;;5109023;27;40887;-63
2023/07/12 10:52:18;;;;;;;9.98;3.22;;;;;;;;;;5108138;27;41924;-63
2023/07/12 10:54:51;;;;;;;8.32;3.22;;;;;;;;;;5102816;27;41606;-62
2023/07/12 10:57:25;;;;;;;8.68;3.00;;;;;;;;;;5096662;28;40357;-65
2023/07/12 10:59:58;;;;;;;8.82;3.03;;;;;;;;;;5100099;28;41868;-66
2023/07/12 11:02:27;;;;;;;11.50;3.42;;;;;;;;;;5103589;27;42276;-65
2023/07/12 11:04:55;;;;;;;6.45;2.65;;;;;;;;;;5098240;28;42861;-65
2023/07/12 11:07:30;;;;;;;9.00;3.00;;;;;;;;;;5088578;27;42382;-67
2023/07/12 11:10:06;;;;;;;10.27;3.33;;;;;;;;;;5093321;28;41114;-64
2023/07/12 11:12:36;;;;;;;7.95;3.25;;;;;;;;;;5103269;27;42512;-64
2023/07/12 11:15:14;;;;;;;9.32;3.20;;;;;;;;;;5104302;28;41501;-64
2023/07/12 11:17:49;;;;;;;10.27;3.33;;;;;;;;;;5104994;27;41033;-64
2023/07/12 11:20:21;;;;;;;7.93;3.10;;;;;;;;;;5103913;28;41711;-64
2023/07/12 11:22:51;;;;;;;9.95;3.40;;;;;;;;;;5107636;27;42468;-64
2023/07/12 11:25:33;;;;;;;8.52;2.97;;;;;;;;;;5100816;27;40205;-63
2023/07/12 11:28:04;;;;;;;8.48;3.33;;;;;;;;;;5098142;28;42932;-62
2023/07/12 11:30:39;;;;;;;10.95;3.42;;;;;;;;;;5096088;28;40511;-59
2023/07/12 11:33:12;;;;;;;9.98;2.78;;;;;;;;;;5099013;28;42612;-60
2023/07/12 11:35:43;;;;;;;10.10;3.17;;;;;;;;;;5090144;27;43126;-62
2023/07/12 11:38:13;;;;;;;7.65;3.30;;;;;;;;;;5087553;28;41464;-66
2023/07/12 11:40:41;;;;;;;11.43;3.40;;;;;;;;;;5106934;28;41566;-63
2023/07/12 11:43:23;;;;;;;10.38;3.55;;;;;;;;;;5107610;27;43099;-63
2023/07/12 11:45:50;;;;;;;13.13;3.33;;;;;;;;;;5108013;27;39818;-64
2023/07/12 11:48:18;;;;;;;10.30;3.25;;;;;;;;;;5107642;27;42610;-67
2023/07/12 11:50:46;;;;;;;8.95;2.88;;;;;;;;;;5106352;27;40069;-64
2023/07/12 11:53:15;;;;;;;7.10;2.67;;;;;;;;;;5106658;27;41632;-61
2023/07/12 11:55:43;;;;;;;6.40;2.63;;;;;;;;;;5107252;27;42360;-64
2023/07/12 11:58:14;;;;;;;8.73;2.95;;;;;;;;;;5105541;27;40683;-60
2023/07/12 12:00:43;;;;;;;10.55;2.92;;;;;;;;;;5093457;28;42293;-60
2023/07/12 12:03:11;;;;;;;7.55;2.85;;;;;;;;;;5085583;28;43041;-60
2023/07/12 12:05:39;;;;;;;7.63;3.05;;;;;;;;;;5089540;28;40499;-61
2023/07/12 12:08:07;;;;;;;8.80;2.47;;;;;;;;;;5108043;27;42107;-61
2023/07/12 12:10:36;;;;;;;8.40;2.53;;;;;;;;;;5105306;27;41100;-61
2023/07/12 12:13:15;;;;;;;7.70;2.28;;;;;;;;;;5107302;27;42735;-61
2023/07/12 12:15:47;;;;;;;5.38;2.40;;;;;;;;;;5107455;27;41932;-61
2023/07/12 12:18:15;;;;;;;8.68;2.80;;;;;;;;;;5106936;27;40611;-61
2023/07/12 12:20:51;;;;;;;4.97;2.40;;;;;;;;;;5107306;27;41584;-61
2023/07/12 12:23:21;;;;;;;8.32;2.90;;;;;;;;;;5106678;27;41589;-61
2023/07/12 12:25:51;;;;;;;7.45;2.60;;;;;;;;;;5106500;27;40641;-61
2023/07/12 12:28:24;;;;;;;7.03;3.50;;;;;;;;;;5106643;27;40905;-61
2023/07/12 12:30:59;;;;;;;5.90;2.72;;;;;;;;;;5106870;27;42758;-61
2023/07/12 12:33:28;;;;;;;8.73;2.75;;;;;;;;;;5106597;27;41719;-61
2023/07/12 12:35:59;;;;;;;8.25;3.00;;;;;;;;;;5106922;27;42411;-61
2023/07/12 12:38:27;;;;;;;12.52;2.90;;;;;;;;;;5106368;27;40364;-61
2023/07/12 12:40:57;;;;;;;8.35;3.03;;;;;;;;;;5106897;27;41586;-61
2023/07/12 12:43:25;;;;;;;10.18;3.47;;;;;;;;;;5106167;27;42782;-62
2023/07/12 12:45:54;;;;;;;6.28;2.88;;;;;;;;;;5106405;27;41413;-64
2023/07/12 12:48:35;;;;;;;9.60;3.25;;;;;;;;;;5106717;27;41763;-61
2023/07/12 12:51:05;;;;;;;8.32;2.78;;;;;;;;;;5106616;27;41768;-60
2023/07/12 12:53:54;;;;;;;8.40;3.38;;;;;;;;;;5105066;27;41151;-62
2023/07/12 12:56:24;;;;;;;9.23;3.10;;;;;;;;;;5100763;28;42225;-61
2023/07/12 12:58:55;;;;;;;16.92;3.13;;;;;;;;;;5094945;27;39952;-59
2023/07/12 13:01:25;;;;;;;9.65;2.88;;;;;;;;;;5102346;28;42570;-62
2023/07/12 13:03:57;;;;;;;7.47;3.22;;;;;;;;;;5106758;27;41063;-62
2023/07/12 13:06:28;;;;;;;13.60;3.35;;;;;;;;;;5085273;28;40692;-64
2023/07/12 13:08:57;;;;;;;11.95;2.88;;;;;;;;;;5086813;28;41693;-64
2023/07/12 13:11:27;;;;;;;10.25;2.78;;;;;;;;;;5096859;28;41744;-64
2023/07/12 13:13:58;;;;;;;12.15;2.72;;;;;;;;;;5106089;27;41495;-64
2023/07/12 13:16:29;;;;;;;6.00;2.22;;;;;;;;;;5106382;27;41214;-63
2023/07/12 13:19:01;;;;;;;7.88;2.20;;;;;;;;;;5107630;27;40984;-64
2023/07/12 13:21:33;;;;;;;7.55;2.17;;;;;;;;;;5105773;27;42613;-66
2023/07/12 13:24:02;;;;;;;6.57;2.10;;;;;;;;;;5106530;27;43099;-66
2023/07/12 13:26:30;;;;;;;7.05;1.90;;;;;;;;;;5101669;27;40699;-66
2023/07/12 13:28:58;;;;;;;5.55;2.20;;;;;;;;;;5103843;27;41217;-68
2023/07/12 13:31:26;;;;;;;6.60;2.15;;;;;;;;;;5105269;28;41389;-65
2023/07/12 13:33:53;;;;;;;7.40;2.15;;;;;;;;;;5106051;27;39981;-68
2023/07/12 13:36:28;;;;;;;5.13;2.20;;;;;;;;;;5105186;27;41775;-66
2023/07/12 13:38:58;;;;;;;8.00;2.30;;;;;;;;;;5107281;27;33058;-64
2023/07/12 13:41:29;;;;;;;5.50;2.20;;;;;;;;;;5104413;27;42210;-66
2023/07/12 13:44:00;;;;;;;7.30;2.35;;;;;;;;;;5106064;27;42146;-63
2023/07/12 13:46:31;;;;;;;9.00;2.17;;;;;;;;;;5105829;27;41602;-62
2023/07/12 13:48:59;;;;;;;3.63;1.60;;;;;;;;;;5097843;27;42677;-63
2023/07/12 13:51:28;;;;;;;6.57;2.28;;;;;;;;;;5092436;28;42370;-62
2023/07/12 13:53:56;;;;;;;4.90;1.95;;;;;;;;;;5098539;27;40698;-62
2023/07/12 13:56:24;;;;;;;6.30;1.80;;;;;;;;;;5102633;27;41265;-62
2023/07/12 13:58:55;;;;;;;3.58;1.73;;;;;;;;;;5105352;27;42660;-62
2023/07/12 14:01:28;;;;;;;4.70;1.63;;;;;;;;;;5102189;28;42325;-62
2023/07/12 14:04:10;;;;;;;4.47;1.98;;;;;;;;;;5102196;28;42656;-65
2023/07/12 14:06:51;;;;;;;13.77;2.75;;;;;;;;;;5106064;27;40473;-60
2023/07/12 14:09:26;;;;;;;6.28;1.90;;;;;;;;;;5096257;27;42177;-60
2023/07/12 14:11:54;;;;;;;5.80;2.10;;;;;;;;;;5105285;27;42720;-60
2023/07/12 14:14:22;;;;;;;4.97;1.92;;;;;;;;;;5106918;27;41361;-60
2023/07/12 14:16:50;;;;;;;3.40;1.85;;;;;;;;;;5100012;27;42119;-60
2023/07/12 14:19:18;;;;;;;4.05;1.50;;;;;;;;;;5088295;28;42218;-60
2023/07/12 14:21:46;;;;;;;6.03;1.98;;;;;;;;;;5099235;28;40668;-61
2023/07/12 14:24:15;;;;;;;4.95;1.70;;;;;;;;;;5108859;27;41833;-61
2023/07/12 14:26:43;;;;;;;4.13;1.83;;;;;;;;;;5109437;27;40711;-61
2023/07/12 14:29:11;;;;;;;3.63;1.88;;;;;;;;;;5109245;27;42123;-61
2023/07/12 14:31:59;;;;;;;5.47;1.50;;;;;;;;;;5107775;27;41706;-61
2023/07/12 14:34:27;;;;;;;2.97;1.20;;;;;;;;;;5108417;27;41257;-64
2023/07/12 14:36:55;;;;;;;4.18;1.20;;;;;;;;;;5098187;27;41775;-62
2023/07/12 14:39:25;;;;;;;3.33;1.17;;;;;;;;;;5092210;28;42108;-72
2023/07/12 14:41:53;;;;;;;2.78;1.40;;;;;;;;;;5108320;27;41267;-71
2023/07/12 14:44:22;;;;;;;2.47;0.90;;;;;;;;;;5109359;27;41301;-68
2023/07/12 14:46:50;;;;;;;2.22;1.10;;;;;;;;;;5108969;27;40042;-68
2023/07/12 14:49:18;;;;;;;4.75;1.42;;;;;;;;;;5108953;27;41981;-66
2023/07/12 14:51:45;;;;;;;3.55;1.40;;;;;;;;;;5107616;27;43780;-66
2023/07/12 14:54:35;;;;;;;5.32;1.70;;;;;;;;;;5109447;27;41519;-67